San Haven, North Dakota
Current Conditions -  °F | °C
As of 1:15 PM on Friday 28 Nov 2014 (Local Time) from K06D Reporting Station
Light Snow Light Snow  
Wind Chill: -7°   Ceiling: 600
Heat Index:   Visibility: 9mi
Dew Point:   Wind: 13mph
Humidity: 92%   Direction: 140°SE
Pressure: 29.73"   Gusts: NA
Location:  48.8598°N, 100.05°W
Report Text: K06D 281915Z AUTO 14011KT 9SM -SN BKN006 OVC024 M13/M14 A2973 RMK AO2
Loading
Personal Weather Stations






























Interactive Weather Map New forecast layout! Learn more

10-Day Weather Forecast

Advertisements
Track Severe Weather on mobile